Mable, Pennsylvania
Current Conditions -  °F | °C
As of 1:15 AM on Saturday 01 Nov 2014 (Local Time) from KHZL Reporting Station
Overcast Overcast  
Wind Chill: 43°   Ceiling: 2100
Heat Index: 43°   Visibility: 10mi
Dew Point: 34°   Wind: 3mph
Humidity: 70%   Direction: 360°N
Pressure: 29.87"   Gusts: NA
Location:  40.7564°N, 76.3531°W
Report Text: KHZL 010515Z AUTO 36003KT 10SM OVC021 06/01 A2987 RMK AO2
Loading
Personal Weather Stations






























Interactive Weather Map
Tropical Storm Tracking
New forecast layout! Learn more

10-Day Weather Forecast

Advertisements
Track Severe Weather on mobile